createdAt,value
2023-03-20T00:03:47.877Z,5.40
2023-03-20T00:07:51.279Z,4.60
2023-03-20T00:11:55.484Z,4.30
2023-03-20T00:16:00.724Z,5.30
2023-03-20T00:20:05.447Z,4.03
2023-03-20T00:24:08.987Z,3.90
2023-03-20T00:28:37.423Z,4.50
2023-03-20T00:32:40.250Z,4.60
2023-03-20T00:36:44.688Z,5.07
2023-03-20T00:40:47.420Z,3.70
2023-03-20T00:44:53.176Z,4.20
2023-03-20T00:48:56.102Z,3.57
2023-03-20T00:53:00.609Z,3.50
2023-03-20T00:57:05.994Z,5.50
2023-03-20T01:01:08.985Z,3.50
2023-03-20T01:05:13.009Z,3.00
2023-03-20T01:09:18.182Z,4.23
2023-03-20T01:13:25.902Z,3.60
2023-03-20T01:17:29.657Z,3.63
2023-03-20T01:21:32.330Z,3.53
2023-03-20T01:25:37.384Z,3.50
2023-03-20T01:29:40.179Z,4.50
2023-03-20T01:33:42.803Z,3.60
2023-03-20T01:37:46.525Z,3.70
2023-03-20T01:41:51.992Z,3.40
2023-03-20T01:45:59.241Z,4.80
2023-03-20T01:50:31.023Z,3.30
2023-03-20T01:54:36.446Z,4.03
2023-03-20T01:58:43.713Z,3.40
2023-03-20T02:02:48.413Z,3.20
2023-03-20T02:06:51.282Z,3.17
2023-03-20T02:10:54.986Z,4.20
2023-03-20T02:15:01.788Z,3.27
2023-03-20T02:19:05.793Z,3.20
2023-03-20T02:23:41.167Z,3.33
2023-03-20T02:27:55.176Z,3.30
2023-03-20T02:32:27.797Z,3.80
2023-03-20T02:36:52.461Z,3.80
2023-03-20T02:41:00.502Z,3.30
2023-03-20T02:45:09.440Z,4.60
2023-03-20T02:49:20.528Z,4.13
2023-03-20T02:53:33.112Z,3.90
2023-03-20T02:57:44.505Z,4.10
2023-03-20T03:01:54.540Z,3.77
2023-03-20T03:06:00.500Z,3.80
2023-03-20T03:10:06.847Z,4.80
2023-03-20T03:14:15.504Z,4.90
2023-03-20T03:18:20.673Z,4.80
2023-03-20T03:22:24.314Z,5.23
2023-03-20T03:26:29.756Z,4.97
2023-03-20T03:30:35.986Z,4.97
2023-03-20T03:34:39.058Z,4.93
2023-03-20T03:38:46.008Z,5.00
2023-03-20T03:42:54.809Z,5.37
2023-03-20T03:47:01.368Z,4.97
2023-03-20T03:51:08.765Z,5.40
2023-03-20T03:55:13.180Z,6.00
2023-03-20T03:59:22.004Z,5.80
2023-03-20T04:03:30.757Z,6.13
2023-03-20T04:07:33.609Z,6.10
2023-03-20T04:11:36.654Z,5.73
2023-03-20T04:15:39.575Z,6.73
2023-03-20T04:19:44.143Z,6.30
2023-03-20T04:23:47.064Z,6.67
2023-03-20T04:27:50.161Z,6.53
2023-03-20T04:31:53.038Z,6.60
2023-03-20T04:35:57.164Z,6.63
2023-03-20T04:39:59.829Z,7.03
2023-03-20T04:44:02.413Z,6.90
2023-03-20T04:48:06.015Z,7.43
2023-03-20T04:52:11.213Z,8.13
2023-03-20T04:56:16.248Z,7.13
2023-03-20T05:00:19.989Z,8.47
2023-03-20T05:04:23.331Z,8.10
2023-03-20T05:08:31.054Z,9.00
2023-03-20T05:12:34.307Z,8.00
2023-03-20T05:16:36.970Z,9.13
2023-03-20T05:20:40.038Z,10.03
2023-03-20T05:24:44.023Z,10.13
2023-03-20T05:28:46.691Z,10.30
2023-03-20T05:32:52.645Z,9.80
2023-03-20T05:36:55.659Z,9.77
2023-03-20T05:41:01.028Z,10.53
2023-03-20T05:45:04.384Z,10.93
2023-03-20T05:49:07.016Z,9.03
2023-03-20T05:53:09.672Z,9.53
2023-03-20T05:57:14.379Z,9.63
2023-03-20T06:01:21.307Z,10.33
2023-03-20T06:05:23.963Z,9.90
2023-03-20T06:09:26.642Z,10.37
2023-03-20T06:13:33.892Z,9.80
2023-03-20T06:17:36.831Z,9.57
2023-03-20T06:21:39.794Z,10.77
2023-03-20T06:25:42.719Z,9.83
2023-03-20T06:29:47.042Z,9.70
2023-03-20T06:33:49.802Z,9.83
2023-03-20T06:37:52.461Z,9.87
2023-03-20T06:41:55.396Z,10.13
2023-03-20T06:45:59.671Z,8.97
2023-03-20T06:50:02.339Z,9.27
2023-03-20T06:54:05.266Z,9.43
2023-03-20T06:58:08.199Z,9.33
2023-03-20T07:02:12.681Z,8.03
2023-03-20T07:06:15.532Z,8.03
2023-03-20T07:10:19.659Z,7.77
2023-03-20T07:14:22.806Z,8.10
2023-03-20T07:18:27.370Z,8.07
2023-03-20T07:22:31.315Z,7.20
2023-03-20T07:26:34.036Z,7.03
2023-03-20T07:30:36.673Z,7.87
2023-03-20T07:34:41.052Z,6.17
2023-03-20T07:38:43.751Z,6.80
2023-03-20T07:42:47.497Z,7.47
2023-03-20T07:46:50.471Z,6.10
2023-03-20T07:50:56.904Z,6.57
2023-03-20T07:54:59.594Z,6.30
2023-03-20T07:59:02.266Z,5.57
2023-03-20T08:03:05.683Z,5.90
2023-03-20T08:07:09.864Z,5.67
2023-03-20T08:11:12.648Z,5.53
2023-03-20T08:15:15.426Z,5.50
2023-03-20T08:19:18.134Z,5.60
2023-03-20T08:23:22.401Z,5.73
2023-03-20T08:27:25.256Z,5.60
2023-03-20T08:31:28.459Z,5.43
2023-03-20T08:35:33.697Z,5.37
2023-03-20T08:39:39.538Z,6.10
2023-03-20T08:43:42.205Z,5.90
2023-03-20T08:47:48.793Z,5.73
2023-03-20T08:51:51.540Z,5.57
2023-03-20T08:55:56.515Z,6.00
2023-03-20T08:59:59.637Z,5.20
2023-03-20T09:04:02.376Z,5.60
2023-03-20T09:08:08.237Z,5.97
2023-03-20T09:12:12.308Z,6.07
2023-03-20T09:16:15.183Z,6.10
2023-03-20T09:20:18.088Z,6.13
2023-03-20T09:24:20.742Z,6.03
2023-03-20T09:28:25.796Z,6.40
2023-03-20T09:32:28.471Z,6.13
2023-03-20T09:36:31.599Z,6.10
2023-03-20T09:40:54.842Z,5.37
2023-03-20T09:45:06.660Z,5.80
2023-03-20T09:49:14.619Z,6.37
2023-03-20T09:53:21.340Z,6.40
2023-03-20T09:57:25.886Z,5.80
2023-03-20T10:01:34.624Z,5.63
2023-03-20T10:05:41.126Z,3.30
2023-03-20T10:09:45.790Z,4.57
2023-03-20T10:14:03.540Z,4.00
2023-03-20T10:18:13.009Z,4.73
2023-03-20T10:22:22.238Z,4.00
2023-03-20T10:26:25.423Z,3.53
2023-03-20T10:30:36.850Z,4.80
2023-03-20T10:34:54.431Z,4.47
2023-03-20T10:39:01.022Z,5.17
2023-03-20T10:43:07.184Z,4.90
2023-03-20T10:47:11.618Z,5.40
2023-03-20T10:51:20.057Z,4.30
2023-03-20T10:55:25.667Z,4.60
2023-03-20T10:59:29.887Z,4.93
2023-03-20T11:03:34.155Z,4.50
2023-03-20T11:07:41.544Z,4.63
2023-03-20T11:11:47.071Z,5.10
2023-03-20T11:15:49.771Z,4.47
2023-03-20T11:19:53.568Z,5.17
2023-03-20T11:23:59.065Z,5.30
2023-03-20T11:28:20.157Z,5.67
2023-03-20T11:32:28.767Z,6.50
2023-03-20T11:36:33.152Z,6.60
2023-03-20T11:40:38.610Z,7.43
2023-03-20T11:44:41.804Z,18.37
2023-03-20T11:48:45.829Z,6.43
2023-03-20T11:52:48.601Z,6.40
2023-03-20T11:56:57.478Z,6.27
2023-03-20T12:01:02.515Z,6.33
2023-03-20T12:05:20.280Z,5.53
2023-03-20T12:09:28.886Z,5.63
2023-03-20T12:13:35.706Z,5.93
2023-03-20T12:17:47.647Z,5.60
2023-03-20T12:21:55.280Z,5.47
2023-03-20T12:26:03.042Z,4.83
2023-03-20T12:30:12.480Z,5.97
2023-03-20T12:34:18.974Z,5.40
2023-03-20T12:38:26.306Z,5.17
2023-03-20T12:42:39.214Z,5.83
2023-03-20T12:46:46.010Z,5.50
2023-03-20T12:50:51.996Z,5.33
2023-03-20T12:55:10.552Z,6.00
2023-03-20T12:59:18.864Z,5.63
2023-03-20T13:03:34.081Z,15.63
2023-03-20T13:07:47.730Z,6.07
2023-03-20T13:11:56.702Z,6.80
2023-03-20T13:16:08.536Z,6.57
2023-03-20T13:20:22.318Z,5.27
2023-03-20T13:24:34.348Z,5.47
2023-03-20T13:28:40.921Z,5.33
2023-03-20T13:32:55.256Z,5.70
2023-03-20T13:37:22.480Z,5.83
2023-03-20T13:41:26.829Z,5.87
2023-03-20T13:45:34.405Z,6.07
2023-03-20T13:49:38.591Z,6.70
2023-03-20T13:53:51.021Z,5.80
2023-03-20T13:58:12.355Z,6.53
2023-03-20T14:02:28.334Z,6.43
2023-03-20T14:06:50.278Z,6.70
2023-03-20T14:11:07.375Z,6.67
2023-03-20T14:15:13.246Z,6.73
2023-03-20T14:19:19.186Z,7.03
2023-03-20T14:23:31.317Z,6.40
2023-03-20T14:27:53.958Z,6.00
2023-03-20T14:32:04.204Z,6.97
2023-03-20T14:36:20.703Z,6.93
2023-03-20T14:40:26.009Z,7.43
2023-03-20T14:44:39.978Z,7.50
2023-03-20T14:48:45.626Z,8.00
2023-03-20T14:52:56.934Z,8.10
2023-03-20T14:57:10.698Z,7.33
2023-03-20T15:01:20.032Z,7.97
2023-03-20T15:05:26.458Z,7.40
2023-03-20T15:09:32.161Z,7.90
2023-03-20T15:13:35.838Z,7.17
2023-03-20T15:17:42.038Z,7.47
2023-03-20T15:21:47.985Z,7.07
2023-03-20T15:25:51.673Z,7.70
2023-03-20T15:29:55.998Z,8.40
2023-03-20T15:34:00.818Z,9.10
2023-03-20T15:38:06.429Z,8.37
2023-03-20T15:42:13.458Z,8.33
2023-03-20T15:46:18.279Z,7.70
2023-03-20T15:50:24.389Z,8.13
2023-03-20T15:54:27.140Z,7.80
2023-03-20T15:58:32.008Z,7.37
2023-03-20T16:02:36.538Z,6.30
2023-03-20T16:06:47.420Z,6.70
2023-03-20T16:10:52.911Z,13.10
2023-03-20T16:14:56.235Z,8.93
2023-03-20T16:18:59.406Z,8.13
2023-03-20T16:23:06.035Z,18.17
2023-03-20T16:27:09.954Z,14.03
2023-03-20T16:31:16.274Z,14.07
2023-03-20T16:35:21.393Z,11.60
2023-03-20T16:39:28.809Z,8.80
2023-03-20T16:43:33.124Z,7.43
2023-03-20T16:47:36.311Z,6.17
2023-03-20T16:51:39.187Z,7.10
2023-03-20T16:55:46.213Z,6.73
2023-03-20T16:59:51.835Z,6.00
2023-03-20T17:03:58.991Z,7.67
2023-03-20T17:08:06.756Z,5.20
2023-03-20T17:12:18.094Z,4.87
2023-03-20T17:16:22.613Z,6.23
2023-03-20T17:20:27.119Z,4.33
2023-03-20T17:24:29.737Z,4.30
2023-03-20T17:28:35.956Z,4.37
2023-03-20T17:32:38.608Z,4.67
2023-03-20T17:36:41.764Z,4.93
2023-03-20T17:40:44.916Z,4.20
2023-03-20T17:44:49.318Z,4.80
2023-03-20T17:48:52.666Z,4.70
2023-03-20T17:52:55.998Z,4.70
2023-03-20T17:56:58.646Z,4.57
2023-03-20T18:01:06.841Z,4.33
2023-03-20T18:05:10.589Z,4.77
2023-03-20T18:09:14.795Z,4.63
2023-03-20T18:13:20.810Z,6.43
2023-03-20T18:17:24.882Z,5.13
2023-03-20T18:21:27.812Z,4.87
2023-03-20T18:25:30.591Z,4.77
2023-03-20T18:29:33.536Z,5.47
2023-03-20T18:33:38.264Z,6.50
2023-03-20T18:37:41.386Z,10.90
2023-03-20T18:41:44.066Z,15.67
2023-03-20T18:45:47.145Z,14.87
2023-03-20T18:49:51.213Z,9.97
2023-03-20T18:53:53.898Z,7.93
2023-03-20T18:57:56.928Z,7.27
2023-03-20T19:02:00.930Z,6.77
2023-03-20T19:06:09.369Z,7.00
2023-03-20T19:10:24.708Z,7.20
2023-03-20T19:14:27.423Z,10.17
2023-03-20T19:18:30.360Z,11.03
2023-03-20T19:22:34.402Z,13.70
2023-03-20T19:26:38.431Z,24.23
2023-03-20T19:30:41.636Z,21.23
2023-03-20T19:39:11.610Z,14.60
2023-03-20T19:43:15.670Z,11.50
2023-03-20T19:47:18.571Z,11.20
2023-03-20T19:51:22.928Z,7.23
2023-03-20T19:55:31.205Z,8.00
2023-03-20T19:59:34.730Z,8.20
2023-03-20T20:03:37.423Z,6.67
2023-03-20T20:12:04.333Z,7.93
2023-03-20T20:16:07.162Z,5.83
2023-03-20T20:20:11.447Z,4.20
2023-03-20T20:24:16.007Z,5.00
2023-03-20T20:28:22.451Z,4.57
2023-03-20T20:32:27.454Z,4.37
2023-03-20T20:40:53.177Z,4.43
2023-03-20T20:44:57.240Z,6.47
2023-03-20T20:49:16.278Z,5.00
2023-03-20T20:53:21.332Z,5.77
2023-03-20T20:57:23.996Z,4.37
2023-03-20T21:01:33.724Z,4.57
2023-03-20T21:05:38.544Z,3.50
2023-03-20T21:09:41.829Z,4.57
2023-03-20T21:13:44.529Z,9.57
2023-03-20T21:17:59.897Z,7.17
2023-03-20T21:22:03.949Z,4.07
2023-03-20T21:26:07.940Z,3.90
2023-03-20T21:30:11.998Z,4.57
2023-03-20T21:34:16.462Z,4.17
2023-03-20T21:42:43.370Z,3.40
2023-03-20T21:52:14.487Z,3.23
2023-03-20T22:00:43.995Z,3.90
2023-03-20T22:05:10.776Z,3.50
2023-03-20T22:09:38.929Z,5.03
2023-03-20T22:14:06.601Z,6.20
2023-03-20T22:35:54.438Z,4.37
2023-03-20T22:48:12.938Z,29.30
2023-03-20T22:52:28.959Z,29.33
2023-03-20T22:56:32.366Z,10.57
2023-03-20T23:00:37.416Z,5.53
2023-03-20T23:04:40.920Z,7.73
2023-03-20T23:08:50.665Z,6.63
2023-03-20T23:12:56.851Z,10.03
2023-03-20T23:17:01.075Z,7.07
2023-03-20T23:21:04.707Z,6.63
2023-03-20T23:25:23.817Z,3.83
2023-03-20T23:29:30.000Z,3.67
2023-03-20T23:33:34.346Z,3.80
2023-03-20T23:37:37.558Z,3.13
2023-03-20T23:42:06.090Z,5.47
2023-03-20T23:46:03.755Z,3.13
2023-03-20T23:50:09.819Z,4.20
2023-03-20T23:54:14.580Z,4.13
2023-03-20T23:58:17.671Z,4.73
